Time;durP1;ratioP1;P1;durP2;ratioP2;P2;SDS_P1;SDS_P2;PMS_P1;PMS_P2;Temp;Humidity;BMP_temperature;BMP_pressure;BME280_temperature;BME280_humidity;BME280_pressure;Samples;Min_cycle;Max_cycle;Signal;HPM_P1;HPM_P2
2022/06/03 00:00:10;;;;;;;5.88;2.90;;;11.70;99.90;;;;;;6244217;23;20008;-72
2022/06/03 00:03:02;;;;;;;13.55;4.43;;;11.80;99.90;;;;;;6243790;22;20099;-69
2022/06/03 00:05:48;;;;;;;5.90;2.65;;;12.00;99.90;;;;;;6243282;22;20439;-73
2022/06/03 00:08:36;;;;;;;8.20;2.88;;;12.10;99.90;;;;;;6242444;23;20004;-67
2022/06/03 00:11:21;;;;;;;4.80;2.70;;;12.20;99.90;;;;;;6243622;23;20000;-68
2022/06/03 00:13:51;;;;;;;6.30;2.40;;;12.30;99.90;;;;;;6243005;22;20427;-70
2022/06/03 00:16:45;;;;;;;6.63;1.95;;;12.40;99.90;;;;;;6242778;22;20000;-70
2022/06/03 00:19:13;;;;;;;5.00;2.65;;;12.50;99.90;;;;;;6243036;23;20065;-78
2022/06/03 00:21:46;;;;;;;5.95;2.58;;;12.60;99.90;;;;;;6244148;22;20011;-71
2022/06/03 00:24:39;;;;;;;5.30;2.55;;;12.60;99.90;;;;;;6243491;22;20004;-77
2022/06/03 00:27:27;;;;;;;;;;;12.70;99.90;;;;;;6243718;22;20100;-78
2022/06/03 00:30:15;;;;;;;5.45;2.33;;;12.70;99.90;;;;;;6243216;22;19942;-73
2022/06/03 00:33:04;;;;;;;6.00;2.30;;;12.80;99.90;;;;;;6242148;23;20004;-71
2022/06/03 00:35:55;;;;;;;4.95;2.00;;;12.90;99.90;;;;;;6242656;22;20001;-75
2022/06/03 00:38:44;;;;;;;6.18;3.17;;;12.90;99.90;;;;;;6242469;22;19996;-76
2022/06/03 00:41:40;;;;;;;4.22;2.42;;;12.90;99.90;;;;;;6243638;23;20008;-77
2022/06/03 00:44:52;;;;;;;8.20;3.38;;;12.90;99.90;;;;;;6244177;22;20099;-77
2022/06/03 00:48:08;;;;;;;5.68;2.10;;;13.00;99.90;;;;;;6243680;23;20107;-77
2022/06/03 00:50:52;;;;;;;6.35;2.35;;;13.10;99.90;;;;;;6120676;23;20002;-77
2022/06/03 00:53:27;;;;;;;5.38;2.80;;;13.10;99.90;;;;;;6244429;22;20008;-74
2022/06/03 00:56:31;;;;;;;5.15;2.45;;;13.10;99.90;;;;;;6244537;22;20000;-78
2022/06/03 00:59:27;;;;;;;5.57;2.00;;;13.20;99.90;;;;;;6243060;22;20038;-75
2022/06/03 01:02:14;;;;;;;7.18;3.25;;;13.30;99.90;;;;;;6217634;22;20490;-77
2022/06/03 01:04:53;;;;;;;5.20;2.35;;;13.50;99.90;;;;;;6244475;22;20038;-75
2022/06/03 01:07:42;;;;;;;5.47;2.50;;;13.60;99.90;;;;;;6245548;22;20000;-80
2022/06/03 01:10:43;;;;;;;4.55;2.03;;;13.70;99.90;;;;;;6245423;22;20001;-80
2022/06/03 01:13:43;;;;;;;4.20;2.25;;;13.70;99.90;;;;;;6243938;23;20015;-77
2022/06/03 01:16:40;;;;;;;4.75;2.20;;;13.80;99.90;;;;;;6244175;22;20004;-76
2022/06/03 01:19:37;;;;;;;6.07;2.50;;;13.80;99.90;;;;;;6244574;23;20054;-76
2022/06/03 01:22:28;;;;;;;4.95;2.50;;;13.90;99.90;;;;;;6244484;22;20079;-77
2022/06/03 01:25:19;;;;;;;5.88;2.50;;;14.00;99.90;;;;;;6244544;22;20008;-77
2022/06/03 01:28:07;;;;;;;4.53;2.10;;;14.10;99.90;;;;;;6241425;23;20065;-75
2022/06/03 01:30:52;;;;;;;4.25;2.28;;;14.20;99.90;;;;;;6244204;22;20016;-76
2022/06/03 01:33:40;;;;;;;3.63;1.75;;;14.30;99.90;;;;;;6245209;22;20011;-77
2022/06/03 01:36:13;;;;;;;6.15;2.60;;;14.30;99.90;;;;;;6244755;22;20026;-78
2022/06/03 01:39:06;;;;;;;4.78;2.65;;;14.50;99.90;;;;;;6242688;22;20011;-70
2022/06/03 01:42:12;;;;;;;4.60;2.10;;;14.70;99.90;;;;;;6244686;23;20004;-76
2022/06/03 01:44:52;;;;;;;5.60;2.38;;;14.90;99.90;;;;;;6243650;23;20006;-75
2022/06/03 01:47:49;;;;;;;3.70;1.92;;;15.00;99.50;;;;;;6244429;22;20550;-76
2022/06/03 01:50:48;;;;;;;4.18;2.55;;;15.20;99.20;;;;;;6243637;23;20003;-77
2022/06/03 01:53:43;;;;;;;5.38;2.67;;;15.30;98.90;;;;;;6178375;22;20334;-75
2022/06/03 01:56:35;;;;;;;4.85;2.13;;;15.40;98.30;;;;;;6243457;22;20004;-78
2022/06/03 01:59:29;;;;;;;6.15;1.40;;;15.40;98.30;;;;;;6242772;22;20004;-75
2022/06/03 02:02:19;;;;;;;2.83;1.33;;;15.30;97.80;;;;;;6243585;23;20008;-74
2022/06/03 02:05:22;;;;;;;4.35;1.80;;;15.40;97.50;;;;;;6243016;22;20032;-77
2022/06/03 02:08:07;;;;;;;;;;;15.40;97.60;;;;;;6241484;23;20079;-78
2022/06/03 02:10:49;;;;;;;4.18;1.50;;;15.50;97.00;;;;;;6243853;23;19923;-74
2022/06/03 02:13:56;;;;;;;3.60;1.20;;;15.70;96.70;;;;;;6242188;23;20504;-79
2022/06/03 02:16:45;;;;;;;1.65;1.02;;;15.90;95.70;;;;;;6242977;23;20058;-77
2022/06/03 02:19:53;;;;;;;4.10;1.35;;;15.90;95.70;;;;;;6243661;22;20419;-78
2022/06/03 02:22:42;;;;;;;3.58;1.42;;;15.90;95.50;;;;;;6135051;22;20463;-71
2022/06/03 02:25:51;;;;;;;3.08;1.10;;;16.10;95.40;;;;;;6242559;22;20000;-66
2022/06/03 02:28:44;;;;;;;4.80;1.40;;;16.10;95.10;;;;;;6196241;22;20426;-72
2022/06/03 02:31:16;;;;;;;;;;;16.20;94.90;;;;;;6242251;22;20785;-66
2022/06/03 02:33:47;;;;;;;3.92;0.93;;;16.50;94.30;;;;;;6244010;22;20021;-73
2022/06/03 02:36:38;;;;;;;2.20;0.90;;;16.70;94.10;;;;;;6243833;22;20000;-72
2022/06/03 02:39:24;;;;;;;3.33;1.10;;;16.70;93.30;;;;;;6187188;22;20012;-72
2022/06/03 02:42:06;;;;;;;1.77;0.80;;;16.70;93.20;;;;;;6243653;22;20541;-68
2022/06/03 02:44:42;;;;;;;3.17;1.25;;;16.70;92.90;;;;;;6244009;22;20490;-69
2022/06/03 02:47:47;;;;;;;4.68;1.63;;;16.80;92.40;;;;;;6243085;22;20403;-69
2022/06/03 02:50:51;;;;;;;3.70;0.98;;;16.80;92.90;;;;;;6243037;22;20007;-70
2022/06/03 02:53:56;;;;;;;3.20;1.00;;;16.80;93.10;;;;;;6242728;23;20008;-71
2022/06/03 02:56:33;;;;;;;2.15;1.00;;;16.70;92.70;;;;;;6243327;23;20035;-72
2022/06/03 02:59:08;;;;;;;2.35;1.30;;;16.90;92.90;;;;;;6243293;22;20073;-71
2022/06/03 03:01:57;;;;;;;6.20;1.10;;;16.90;92.60;;;;;;6242695;22;20064;-67
2022/06/03 03:04:48;;;;;;;3.13;1.35;;;16.70;93.20;;;;;;6242569;22;20019;-71
2022/06/03 03:07:40;;;;;;;3.63;1.23;;;16.40;93.40;;;;;;6242085;23;20012;-67
2022/06/03 03:10:35;;;;;;;2.65;1.27;;;16.10;93.80;;;;;;6242385;23;20008;-73
2022/06/03 03:13:02;;;;;;;4.40;1.52;;;16.00;94.70;;;;;;6244428;23;20052;-72
2022/06/03 03:15:59;;;;;;;3.35;1.15;;;15.90;94.60;;;;;;6244716;22;20079;-74
2022/06/03 03:18:37;;;;;;;3.97;1.67;;;15.90;94.80;;;;;;6244118;22;20087;-74
2022/06/03 03:21:22;;;;;;;2.47;1.10;;;15.80;94.90;;;;;;6244062;22;20453;-74
2022/06/03 03:24:26;;;;;;;3.97;1.30;;;15.70;95.00;;;;;;6244400;22;20032;-68
2022/06/03 03:27:09;;;;;;;1.95;1.08;;;15.50;95.10;;;;;;6241868;23;20078;-73
2022/06/03 03:30:04;;;;;;;1.80;0.70;;;15.40;95.30;;;;;;6243894;22;20024;-67
2022/06/03 03:33:08;;;;;;;2.55;1.25;;;15.30;95.40;;;;;;6244461;22;20004;-74
2022/06/03 03:36:06;;;;;;;4.53;1.02;;;15.20;95.90;;;;;;6244044;23;20008;-74
2022/06/03 03:38:54;;;;;;;2.97;1.20;;;15.10;96.30;;;;;;6243263;22;20015;-71
2022/06/03 03:41:48;;;;;;;2.63;1.42;;;15.10;96.10;;;;;;6244094;22;20030;-72
2022/06/03 03:44:34;;;;;;;3.03;1.13;;;15.00;96.20;;;;;;6245063;23;20003;-75
2022/06/03 03:47:36;;;;;;;1.90;0.88;;;15.00;96.70;;;;;;6243065;22;20039;-74
2022/06/03 03:50:43;;;;;;;1.45;1.08;;;15.00;96.30;;;;;;6197972;22;20008;-70
2022/06/03 03:53:46;;;;;;;4.43;1.27;;;15.00;96.50;;;;;;6242967;23;20061;-71
2022/06/03 03:56:37;;;;;;;2.50;0.90;;;15.10;96.50;;;;;;6244184;23;20028;-74
2022/06/03 03:59:43;;;;;;;6.68;0.90;;;15.10;96.40;;;;;;6243387;22;20004;-72
2022/06/03 04:02:28;;;;;;;3.80;1.60;;;15.00;96.50;;;;;;6243020;22;19996;-66
2022/06/03 04:05:11;;;;;;;4.85;2.03;;;15.00;96.60;;;;;;6240659;23;20091;-67
2022/06/03 04:07:38;;;;;;;;;;;15.00;96.60;;;;;;6238562;22;20075;-72
2022/06/03 04:10:33;;;;;;;3.10;1.30;;;14.90;96.60;;;;;;6240545;22;19904;-76
2022/06/03 04:13:21;;;;;;;2.95;1.17;;;15.00;96.50;;;;;;6243265;22;20067;-75
2022/06/03 04:16:21;;;;;;;2.95;1.45;;;15.00;96.80;;;;;;6243284;23;20004;-73
2022/06/03 04:19:13;;;;;;;3.00;1.25;;;14.90;96.80;;;;;;6241344;23;20000;-75
2022/06/03 04:22:04;;;;;;;2.85;1.30;;;14.90;97.00;;;;;;6180381;22;20050;-75
2022/06/03 04:25:10;;;;;;;4.72;1.55;;;14.80;97.50;;;;;;6243053;22;20007;-74
2022/06/03 04:27:55;;;;;;;3.75;1.10;;;14.90;97.60;;;;;;6243012;23;20012;-74
2022/06/03 04:31:13;;;;;;;2.78;1.17;;;14.80;97.80;;;;;;6242949;22;20569;-71
2022/06/03 04:33:54;;;;;;;2.58;1.30;;;14.80;97.50;;;;;;6119993;23;20077;-69
2022/06/03 04:36:32;;;;;;;2.72;1.10;;;14.90;97.40;;;;;;6120714;23;20006;-65
2022/06/03 04:39:18;;;;;;;3.92;1.08;;;15.00;97.50;;;;;;6211591;22;20007;-69
2022/06/03 04:42:09;;;;;;;2.22;0.98;;;15.10;96.90;;;;;;6242897;22;20334;-65
2022/06/03 04:45:10;;;;;;;2.05;1.10;;;15.10;97.30;;;;;;6242855;23;20004;-69
2022/06/03 04:48:11;;;;;;;3.45;1.30;;;15.10;96.50;;;;;;6244039;23;20522;-69
2022/06/03 04:51:05;;;;;;;2.97;1.30;;;15.00;96.80;;;;;;6241370;23;20012;-65
2022/06/03 04:53:51;;;;;;;2.78;1.10;;;15.00;96.80;;;;;;6243604;23;20107;-71
2022/06/03 04:56:37;;;;;;;2.38;0.95;;;15.00;97.00;;;;;;6241959;23;20079;-70
2022/06/03 04:59:31;;;;;;;2.00;0.95;;;15.00;97.20;;;;;;6241174;23;20087;-68
2022/06/03 05:02:20;;;;;;;2.42;1.13;;;15.00;97.20;;;;;;6242892;23;20004;-71
2022/06/03 05:05:14;;;;;;;2.65;0.90;;;14.90;96.80;;;;;;6242838;22;20020;-71
2022/06/03 05:08:25;;;;;;;2.45;0.95;;;14.90;96.90;;;;;;6240661;23;20089;-73
2022/06/03 05:11:28;;;;;;;3.58;0.90;;;14.90;96.60;;;;;;6242853;22;20050;-69
2022/06/03 05:14:13;;;;;;;2.47;1.02;;;14.90;96.50;;;;;;6242949;22;20000;-68
2022/06/03 05:17:17;;;;;;;3.15;0.75;;;14.90;96.20;;;;;;6242670;22;20011;-68
2022/06/03 05:20:02;;;;;;;2.38;0.75;;;14.90;96.50;;;;;;6242074;23;20000;-70
2022/06/03 05:22:59;;;;;;;4.63;1.30;;;14.90;96.50;;;;;;6242336;22;20050;-73
2022/06/03 05:25:45;;;;;;;4.55;1.38;;;14.90;96.50;;;;;;6219598;23;20359;-70
2022/06/03 05:28:28;;;;;;;2.35;0.70;;;14.90;95.80;;;;;;6241403;22;20395;-71
2022/06/03 05:31:16;;;;;;;1.25;0.70;;;14.80;95.70;;;;;;6242145;22;20030;-74
2022/06/03 05:34:04;;;;;;;2.75;0.95;;;14.70;96.30;;;;;;6241912;23;20000;-77
2022/06/03 05:36:57;;;;;;;2.40;0.98;;;14.70;96.60;;;;;;6242961;23;20601;-71
2022/06/03 05:39:51;;;;;;;2.63;0.90;;;14.60;96.60;;;;;;6242748;22;20019;-73
2022/06/03 05:42:51;;;;;;;2.63;0.90;;;14.50;97.00;;;;;;6242941;22;20007;-75
2022/06/03 05:46:02;;;;;;;2.95;0.68;;;14.50;97.00;;;;;;6175855;22;20426;-79
2022/06/03 05:48:41;;;;;;;1.20;0.60;;;14.50;96.60;;;;;;6242752;22;20000;-71
2022/06/03 05:51:29;;;;;;;1.45;0.80;;;14.50;96.90;;;;;;6241469;22;20699;-73
2022/06/03 05:54:01;;;;;;;2.47;0.90;;;14.50;97.20;;;;;;6241643;23;20000;-72
2022/06/03 05:56:52;;;;;;;2.17;1.20;;;14.40;97.60;;;;;;6237791;23;20004;-73
2022/06/03 05:59:40;;;;;;;4.20;1.33;;;14.50;98.00;;;;;;6241383;22;20000;-68
2022/06/03 06:02:44;;;;;;;5.47;1.15;;;14.40;98.10;;;;;;6243275;22;20418;-69
2022/06/03 06:05:31;;;;;;;2.13;0.80;;;14.40;98.60;;;;;;6141256;22;20031;-71
2022/06/03 06:08:17;;;;;;;4.75;1.08;;;14.30;98.20;;;;;;6241605;22;20058;-72
2022/06/03 06:11:15;;;;;;;3.97;1.38;;;14.30;98.50;;;;;;6240502;23;20090;-70
2022/06/03 06:14:09;;;;;;;2.30;0.90;;;14.20;98.30;;;;;;6242067;22;20005;-76
2022/06/03 06:16:45;;;;;;;2.63;1.02;;;14.20;98.50;;;;;;6241769;22;20032;-72
2022/06/03 06:19:49;;;;;;;3.25;1.00;;;14.20;98.30;;;;;;6241909;22;20004;-70
2022/06/03 06:22:33;;;;;;;;;;;14.10;97.90;;;;;;6243008;22;20010;-70
2022/06/03 06:25:13;;;;;;;2.03;1.25;;;14.10;98.10;;;;;;6242177;22;19907;-76
2022/06/03 06:27:58;;;;;;;3.15;1.30;;;14.10;97.60;;;;;;6241934;22;20020;-75
2022/06/03 06:30:52;;;;;;;2.00;1.10;;;14.00;97.70;;;;;;6241075;23;20001;-74
2022/06/03 06:33:37;;;;;;;4.93;1.52;;;14.00;97.90;;;;;;6242555;22;20020;-70
2022/06/03 06:36:07;;;;;;;1.83;0.80;;;14.00;97.90;;;;;;6242800;22;19996;-73
2022/06/03 06:39:01;;;;;;;3.33;1.00;;;14.00;97.90;;;;;;6242462;22;20445;-75
2022/06/03 06:41:47;;;;;;;3.45;1.02;;;14.00;98.00;;;;;;6243228;22;20550;-76
2022/06/03 06:44:40;;;;;;;1.73;1.00;;;14.00;98.10;;;;;;6244754;22;20033;-69
2022/06/03 06:47:19;;;;;;;3.10;1.40;;;14.00;98.80;;;;;;6244947;22;20027;-71
2022/06/03 06:50:08;;;;;;;4.20;1.42;;;13.90;99.90;;;;;;6243868;22;19996;-72
2022/06/03 06:52:58;;;;;;;3.55;1.00;;;13.90;99.90;;;;;;6245010;22;20030;-72
2022/06/03 06:55:37;;;;;;;2.60;0.95;;;13.80;99.90;;;;;;6243843;22;20129;-74
2022/06/03 06:59:12;;;;;;;3.08;1.30;;;13.60;99.90;;;;;;6243597;22;20000;-71
2022/06/03 07:01:49;;;;;;;2.03;1.23;;;13.50;99.90;;;;;;6108110;23;20453;-71
2022/06/03 07:04:35;;;;;;;3.08;1.40;;;13.40;99.90;;;;;;6120108;23;20468;-73
2022/06/03 07:07:13;;;;;;;4.95;1.13;;;13.20;99.90;;;;;;6228792;22;20334;-69
2022/06/03 07:09:54;;;;;;;3.08;1.10;;;13.10;99.90;;;;;;6243020;22;20087;-71
2022/06/03 07:12:45;;;;;;;1.70;1.10;;;13.00;99.90;;;;;;6216907;23;20494;-64
2022/06/03 07:15:22;;;;;;;1.60;1.17;;;13.00;99.90;;;;;;6242757;22;20003;-72
2022/06/03 07:21:12;;;;;;;3.83;1.17;;;12.90;99.90;;;;;;6241397;23;20023;-72
2022/06/03 07:23:50;;;;;;;1.63;0.80;;;12.90;99.90;;;;;;6245105;22;20101;-74
2022/06/03 07:26:36;;;;;;;3.42;1.30;;;12.80;99.90;;;;;;6244609;22;20415;-70
2022/06/03 07:29:42;;;;;;;2.70;1.63;;;12.80;99.90;;;;;;6244973;22;20070;-69
2022/06/03 07:32:26;;;;;;;2.83;1.20;;;12.70;99.90;;;;;;6244303;22;20075;-67
2022/06/03 07:35:13;;;;;;;3.17;1.20;;;12.70;99.90;;;;;;6241468;22;20086;-79
2022/06/03 07:37:49;;;;;;;1.95;1.00;;;12.60;99.90;;;;;;6241157;22;20304;-72
2022/06/03 07:40:42;;;;;;;2.08;1.23;;;12.60;99.90;;;;;;6242168;22;20004;-69
2022/06/03 07:43:29;;;;;;;2.17;1.23;;;12.60;99.90;;;;;;6230081;23;20001;-69
2022/06/03 07:46:13;;;;;;;2.30;1.33;;;12.60;99.90;;;;;;6242541;22;20024;-69
2022/06/03 07:48:41;;;;;;;2.38;1.60;;;12.60;99.90;;;;;;6241255;23;20035;-68
2022/06/03 07:51:33;;;;;;;2.65;1.52;;;12.60;99.90;;;;;;6241920;23;20035;-74
2022/06/03 07:54:09;;;;;;;3.17;1.27;;;12.50;99.90;;;;;;6243723;22;20308;-80
2022/06/03 07:56:38;;;;;;;5.43;1.65;;;12.50;99.90;;;;;;6243215;22;20050;-68
2022/06/03 07:59:13;;;;;;;1.90;1.08;;;12.50;99.90;;;;;;6241691;23;20008;-68
2022/06/03 08:01:45;;;;;;;2.38;1.42;;;12.40;99.90;;;;;;6243595;22;20501;-69
2022/06/03 08:04:29;;;;;;;1.63;1.13;;;12.40;99.90;;;;;;6243506;22;20016;-78
2022/06/03 08:12:39;;;;;;;2.40;1.30;;;12.40;99.90;;;;;;6244511;23;20338;-73
2022/06/03 08:15:23;;;;;;;2.80;0.90;;;12.30;99.90;;;;;;6243772;22;20000;-79
2022/06/03 08:17:53;;;;;;;4.40;1.33;;;12.30;99.90;;;;;;6243330;23;20435;-77
2022/06/03 08:20:24;;;;;;;1.70;0.90;;;12.30;99.90;;;;;;6244273;22;20051;-80
2022/06/03 08:22:53;;;;;;;2.20;1.45;;;12.40;99.90;;;;;;6244217;22;20322;-80
2022/06/03 08:25:30;;;;;;;2.90;1.70;;;12.40;99.90;;;;;;6244022;22;20008;-78
2022/06/03 08:27:59;;;;;;;3.60;1.50;;;12.40;99.90;;;;;;6244680;22;20058;-80
2022/06/03 08:30:29;;;;;;;3.85;1.60;;;12.30;99.90;;;;;;6244751;22;20004;-75
2022/06/03 08:33:01;;;;;;;2.67;1.70;;;12.30;99.90;;;;;;6244097;22;20046;-80
2022/06/03 08:35:35;;;;;;;1.45;1.17;;;12.30;99.90;;;;;;6243662;22;20079;-79
2022/06/03 08:38:25;;;;;;;3.58;1.50;;;12.40;99.90;;;;;;6244013;22;20031;-80
2022/06/03 08:41:05;;;;;;;2.17;1.30;;;12.30;99.90;;;;;;6243609;22;20071;-77
2022/06/03 08:43:50;;;;;;;2.25;1.27;;;12.40;99.90;;;;;;6243610;22;20205;-77
2022/06/03 08:46:35;;;;;;;2.63;1.20;;;12.30;99.90;;;;;;6243287;22;20035;-76
2022/06/03 08:49:10;;;;;;;1.65;1.20;;;12.30;99.90;;;;;;6243220;22;20039;-76
2022/06/03 08:51:46;;;;;;;1.92;1.10;;;12.30;99.90;;;;;;6242245;22;20043;-66
2022/06/03 08:54:19;;;;;;;2.40;1.23;;;12.30;99.90;;;;;;6244253;22;20002;-68
2022/06/03 08:56:49;;;;;;;4.55;1.38;;;12.40;99.90;;;;;;6244215;22;20063;-68
2022/06/03 08:59:25;;;;;;;1.75;0.90;;;12.30;99.90;;;;;;6243877;22;20378;-73
2022/06/03 09:02:03;;;;;;;2.75;0.82;;;12.40;99.90;;;;;;6244447;22;20011;-72
2022/06/03 09:04:33;;;;;;;1.30;0.98;;;12.40;99.90;;;;;;6243918;22;20016;-68
2022/06/03 09:07:45;;;;;;;1.38;0.77;;;12.30;99.90;;;;;;6243883;22;20074;-70
2022/06/03 09:10:18;;;;;;;2.42;0.70;;;12.30;99.90;;;;;;6188309;22;20415;-68
2022/06/03 09:13:13;;;;;;;2.88;0.90;;;12.30;99.90;;;;;;6242572;23;20062;-68
2022/06/03 09:15:45;;;;;;;2.83;0.90;;;12.40;99.90;;;;;;6229919;23;20339;-70
2022/06/03 09:18:35;;;;;;;2.22;0.90;;;12.30;99.90;;;;;;6243574;22;19997;-67
2022/06/03 09:21:13;;;;;;;2.05;1.25;;;12.30;99.90;;;;;;6242544;23;20005;-76
2022/06/03 09:23:49;;;;;;;2.40;1.05;;;12.30;99.90;;;;;;6244286;22;20004;-70
2022/06/03 09:26:27;;;;;;;2.40;1.30;;;12.20;99.90;;;;;;6242377;23;20019;-68
2022/06/03 09:28:57;;;;;;;2.60;1.20;;;12.20;99.90;;;;;;6242920;22;20023;-68
2022/06/03 09:31:25;;;;;;;2.08;0.98;;;12.30;99.90;;;;;;6240662;22;20008;-68
2022/06/03 09:33:55;;;;;;;2.42;1.25;;;12.30;99.90;;;;;;6243437;22;20011;-67
2022/06/03 09:36:24;;;;;;;2.45;1.00;;;12.20;99.90;;;;;;6244159;22;20008;-69
2022/06/03 09:38:58;;;;;;;2.22;1.20;;;12.20;99.90;;;;;;6243487;22;20000;-70
2022/06/03 09:41:30;;;;;;;4.68;2.22;;;12.20;99.90;;;;;;6243127;22;20000;-72
2022/06/03 09:44:02;;;;;;;2.95;1.60;;;12.10;99.90;;;;;;6244226;22;20064;-68
2022/06/03 09:46:36;;;;;;;4.30;2.30;;;12.00;99.90;;;;;;6218465;23;20046;-73
2022/06/03 09:49:09;;;;;;;2.85;1.65;;;12.00;99.90;;;;;;6243728;22;20226;-72
2022/06/03 09:51:57;;;;;;;4.32;2.75;;;12.00;99.90;;;;;;6243087;23;20004;-68
2022/06/03 09:54:34;;;;;;;4.35;2.90;;;11.90;99.90;;;;;;6242572;22;20000;-70
2022/06/03 09:57:22;;;;;;;3.50;1.90;;;11.90;99.90;;;;;;6243338;22;20010;-67
2022/06/03 10:00:15;;;;;;;1.65;1.20;;;11.80;99.90;;;;;;6222271;22;20011;-66
2022/06/03 10:02:46;;;;;;;1.45;0.80;;;11.80;99.90;;;;;;6243469;22;20408;-69
2022/06/03 10:05:16;;;;;;;2.03;1.00;;;11.90;99.90;;;;;;6243303;22;20015;-71
2022/06/03 10:07:46;;;;;;;2.17;1.42;;;11.90;99.90;;;;;;6243109;22;20011;-67
2022/06/03 10:13:04;;;;;;;4.70;1.30;;;11.90;99.90;;;;;;6243389;23;20020;-68
2022/06/03 10:15:41;;;;;;;1.33;0.90;;;11.80;99.90;;;;;;6243422;22;20423;-73
2022/06/03 10:18:23;;;;;;;2.40;1.10;;;11.90;99.90;;;;;;6243251;22;19997;-73
2022/06/03 10:20:55;;;;;;;2.45;1.00;;;11.80;99.90;;;;;;6244969;22;20008;-74
2022/06/03 10:23:26;;;;;;;1.63;0.90;;;11.80;99.90;;;;;;6245653;22;20000;-68
2022/06/03 10:25:58;;;;;;;2.58;1.00;;;11.80;99.90;;;;;;6244534;22;20050;-78
2022/06/03 10:28:27;;;;;;;1.30;0.90;;;11.80;99.90;;;;;;6244979;22;20004;-73
2022/06/03 10:31:04;;;;;;;1.65;1.20;;;11.80;99.90;;;;;;6244698;22;20043;-76
2022/06/03 10:33:32;;;;;;;1.30;0.93;;;11.80;99.90;;;;;;6245324;22;20307;-79
2022/06/03 10:36:02;;;;;;;1.80;1.00;;;11.80;99.90;;;;;;6245041;22;20009;-76
2022/06/03 10:38:34;;;;;;;2.15;1.10;;;11.80;99.90;;;;;;6245297;22;20109;-80
2022/06/03 10:41:10;;;;;;;2.05;0.90;;;11.80;99.90;;;;;;6245230;22;20004;-72
2022/06/03 10:43:38;;;;;;;3.65;1.10;;;11.80;99.90;;;;;;6245338;22;20000;-76
2022/06/03 10:46:21;;;;;;;2.25;0.90;;;11.80;99.90;;;;;;6244553;22;20620;-78
2022/06/03 10:48:48;;;;;;;2.03;1.08;;;11.70;99.90;;;;;;6243607;23;20004;-77
2022/06/03 11:02:53;;;;;;;3.33;2.20;;;11.60;99.90;;;;;;6220825;22;20750;-79
2022/06/03 11:05:29;;;;;;;1.85;0.88;;;11.60;99.90;;;;;;6245535;22;20008;-78
2022/06/03 11:08:10;;;;;;;1.42;0.80;;;11.60;99.90;;;;;;6245321;22;20028;-76
2022/06/03 11:10:45;;;;;;;1.92;1.30;;;11.70;99.90;;;;;;6244128;22;20050;-80
2022/06/03 11:13:24;;;;;;;6.05;2.05;;;11.60;99.90;;;;;;6244459;22;20572;-79
2022/06/03 11:15:53;;;;;;;2.45;0.82;;;11.70;99.90;;;;;;6244672;22;20365;-75
2022/06/03 11:18:29;;;;;;;1.15;0.90;;;11.70;99.90;;;;;;6244275;23;20007;-80
2022/06/03 11:21:00;;;;;;;2.30;1.27;;;11.70;99.90;;;;;;6245813;22;20012;-78
2022/06/03 11:23:28;;;;;;;2.30;0.80;;;11.70;99.90;;;;;;6244932;22;19996;-73
2022/06/03 11:26:00;;;;;;;3.03;1.20;;;11.70;99.90;;;;;;6245385;22;20012;-78
2022/06/03 11:28:45;;;;;;;1.73;1.00;;;11.70;99.90;;;;;;6245252;22;20023;-65
2022/06/03 11:31:27;;;;;;;1.90;1.13;;;11.70;99.90;;;;;;6243923;22;20000;-65
2022/06/03 11:33:57;;;;;;;;;;;11.80;99.90;;;;;;6245740;22;20171;-66
2022/06/03 11:36:33;;;;;;;3.80;1.90;;;11.70;99.90;;;;;;6245339;22;20310;-67
2022/06/03 11:39:16;;;;;;;11.70;8.48;;;11.70;99.90;;;;;;6246014;22;20000;-66
2022/06/03 11:42:01;;;;;;;6.78;3.70;;;11.80;99.90;;;;;;6244439;22;20004;-66
2022/06/03 11:44:36;;;;;;;4.35;1.58;;;11.80;99.90;;;;;;6244535;22;20048;-66
2022/06/03 11:47:28;;;;;;;11.60;6.47;;;11.80;99.90;;;;;;6245928;23;20311;-65
2022/06/03 11:50:00;;;;;;;7.78;4.28;;;11.80;99.90;;;;;;6245306;22;20014;-66
2022/06/03 11:52:27;;;;;;;4.30;2.30;;;11.90;99.90;;;;;;6243459;23;20004;-66
2022/06/03 11:54:55;;;;;;;7.65;3.95;;;11.80;99.90;;;;;;6244843;23;20007;-66
2022/06/03 11:57:24;;;;;;;4.22;1.50;;;11.80;99.90;;;;;;6244245;22;20007;-66
2022/06/03 12:00:04;;;;;;;4.70;2.35;;;11.80;99.90;;;;;;6245104;22;20032;-67
2022/06/03 12:02:42;;;;;;;9.80;6.05;;;11.80;99.90;;;;;;6243300;23;20015;-67
2022/06/03 12:05:21;;;;;;;4.18;1.45;;;11.80;99.90;;;;;;6245122;22;20138;-68
2022/06/03 12:08:11;;;;;;;6.22;2.55;;;11.80;99.90;;;;;;6244990;22;20019;-72
2022/06/03 12:10:44;;;;;;;3.03;1.27;;;11.80;99.90;;;;;;6244536;22;20015;-72
2022/06/03 12:13:19;;;;;;;2.50;2.13;;;11.80;99.90;;;;;;6245364;22;19997;-67
2022/06/03 12:16:04;;;;;;;3.17;0.90;;;11.80;99.90;;;;;;6245764;22;20078;-69
2022/06/03 12:18:37;;;;;;;3.78;1.25;;;11.80;99.90;;;;;;6244990;22;19999;-71
2022/06/03 12:21:13;;;;;;;1.75;1.17;;;11.70;99.90;;;;;;6245227;22;20004;-68
2022/06/03 12:23:45;;;;;;;2.30;0.70;;;11.70;99.90;;;;;;6245111;22;20057;-74
2022/06/03 12:26:31;;;;;;;1.27;0.73;;;11.70;99.90;;;;;;6243050;23;20062;-66
2022/06/03 12:29:33;;;;;;;5.70;3.78;;;11.60;99.90;;;;;;6244610;22;20083;-72
2022/06/03 12:32:38;;;;;;;3.15;0.88;;;11.60;99.90;;;;;;6244092;23;20031;-69
2022/06/03 12:35:42;;;;;;;1.67;1.00;;;11.60;99.90;;;;;;6238917;23;20004;-65
2022/06/03 12:38:24;;;;;;;2.05;1.40;;;11.60;99.90;;;;;;6245191;23;20334;-66
2022/06/03 12:40:56;;;;;;;2.55;1.55;;;11.50;99.90;;;;;;6244593;22;20003;-66
2022/06/03 12:43:30;;;;;;;;;;;11.50;99.90;;;;;;6245406;22;20343;-73
2022/06/03 12:46:10;;;;;;;3.97;1.20;;;11.50;99.90;;;;;;6242838;23;19926;-65
2022/06/03 12:48:48;;;;;;;3.72;1.90;;;11.50;99.90;;;;;;6244725;22;20014;-68
2022/06/03 12:51:34;;;;;;;2.50;1.27;;;11.50;99.90;;;;;;6244333;22;20000;-65
2022/06/03 12:54:19;;;;;;;1.95;1.10;;;11.50;99.90;;;;;;6244207;22;20004;-67
2022/06/03 12:57:02;;;;;;;2.83;1.30;;;11.50;99.90;;;;;;6244561;22;20000;-67
2022/06/03 13:00:03;;;;;;;3.08;0.80;;;11.50;99.90;;;;;;6244386;22;20460;-66
2022/06/03 13:02:37;;;;;;;2.00;1.27;;;11.50;99.90;;;;;;6244133;22;20000;-66
2022/06/03 13:05:23;;;;;;;2.38;1.40;;;11.40;99.90;;;;;;6244259;22;20015;-66
2022/06/03 13:08:07;;;;;;;1.35;0.90;;;11.40;99.90;;;;;;6243807;22;20000;-73
2022/06/03 13:11:01;;;;;;;3.03;1.05;;;11.40;99.90;;;;;;6244185;22;20010;-66
2022/06/03 13:13:34;;;;;;;3.15;1.20;;;11.40;99.90;;;;;;6244098;22;20000;-66
2022/06/03 13:16:24;;;;;;;1.92;0.90;;;11.40;99.90;;;;;;6244883;22;20429;-69
2022/06/03 13:19:01;;;;;;;1.27;0.85;;;11.50;99.90;;;;;;6244825;22;20075;-66
2022/06/03 13:21:49;;;;;;;2.10;1.00;;;11.40;99.90;;;;;;6244474;22;20442;-66
2022/06/03 13:24:23;;;;;;;1.40;1.10;;;11.40;99.90;;;;;;6244594;23;20476;-66
2022/06/03 13:27:12;;;;;;;3.33;0.90;;;11.40;99.90;;;;;;6244587;22;20469;-65
2022/06/03 13:29:52;;;;;;;2.65;0.93;;;11.40;99.90;;;;;;6243928;23;20049;-66
2022/06/03 13:32:39;;;;;;;2.30;1.02;;;11.50;99.90;;;;;;6244559;22;20007;-70
2022/06/03 13:35:27;;;;;;;2.85;1.33;;;11.50;99.90;;;;;;6244420;22;20326;-66
2022/06/03 13:38:00;;;;;;;2.45;1.10;;;11.40;99.90;;;;;;6244106;22;20032;-68
2022/06/03 13:40:27;;;;;;;1.63;1.20;;;11.40;99.90;;;;;;6244267;22;19996;-66
2022/06/03 13:43:00;;;;;;;5.68;3.10;;;11.40;99.90;;;;;;6243020;23;20007;-68
2022/06/03 13:45:58;;;;;;;3.60;1.88;;;11.50;99.90;;;;;;6244452;22;20039;-66
2022/06/03 13:48:55;;;;;;;3.20;2.05;;;11.40;99.90;;;;;;6244548;22;20031;-66
2022/06/03 13:52:09;;;;;;;4.13;1.70;;;11.40;99.90;;;;;;6235164;23;20027;-67
2022/06/03 13:54:47;;;;;;;2.25;1.02;;;11.40;99.90;;;;;;6121396;23;20013;-66
2022/06/03 13:57:36;;;;;;;2.45;1.20;;;11.40;99.90;;;;;;6229627;22;20008;-66
2022/06/03 14:00:46;;;;;;;2.53;1.05;;;11.40;99.90;;;;;;6244480;22;20004;-67
2022/06/03 14:03:21;;;;;;;2.05;0.98;;;11.30;99.90;;;;;;6222809;23;20020;-66
2022/06/03 14:06:17;;;;;;;3.17;1.42;;;11.30;99.90;;;;;;6244071;22;20024;-66
2022/06/03 14:09:10;;;;;;;7.25;1.33;;;11.30;99.90;;;;;;6244582;22;20008;-71
2022/06/03 14:11:40;;;;;;;6.30;1.70;;;11.30;99.90;;;;;;6244343;23;20024;-67
2022/06/03 14:14:30;;;;;;;1.90;1.40;;;11.20;99.90;;;;;;6243998;22;20004;-67
2022/06/03 14:17:22;;;;;;;5.85;1.85;;;11.20;99.90;;;;;;6244227;23;20000;-71
2022/06/03 14:20:05;;;;;;;2.38;1.20;;;11.30;99.90;;;;;;6244151;23;20004;-68
2022/06/03 14:22:41;;;;;;;1.67;0.90;;;11.30;99.90;;;;;;6244495;22;20071;-66
2022/06/03 14:25:21;;;;;;;1.80;1.13;;;11.20;99.90;;;;;;6242295;23;20058;-67
2022/06/03 14:28:18;;;;;;;2.45;1.25;;;11.20;99.90;;;;;;6244348;22;20008;-66
2022/06/03 14:30:51;;;;;;;2.28;1.40;;;11.20;99.90;;;;;;6244483;23;20024;-67
2022/06/03 14:33:22;;;;;;;4.07;2.35;;;11.20;99.90;;;;;;6244365;22;20007;-67
2022/06/03 14:35:56;;;;;;;9.05;5.97;;;11.30;99.90;;;;;;6244610;22;20004;-66
2022/06/03 14:39:10;;;;;;;3.50;2.03;;;11.30;99.90;;;;;;6244333;22;19997;-66
2022/06/03 14:41:41;;;;;;;4.28;1.95;;;11.30;99.90;;;;;;6190296;22;20345;-66